sensor_id;sensor_type;location;lat;lon;timestamp;P1;durP1;ratioP1;P2;durP2;ratioP2
11761;SDS011;5938;47.098;15.474;2022-10-22T00:01:33;27.80;;;21.40;;
11761;SDS011;5938;47.098;15.474;2022-10-22T00:05:37;24.70;;;19.00;;
11761;SDS011;5938;47.098;15.474;2022-10-22T00:09:40;25.30;;;20.53;;
11761;SDS011;5938;47.098;15.474;2022-10-22T00:13:44;26.00;;;20.50;;
11761;SDS011;5938;47.098;15.474;2022-10-22T00:17:49;24.83;;;20.70;;
11761;SDS011;5938;47.098;15.474;2022-10-22T00:21:53;27.03;;;20.60;;
11761;SDS011;5938;47.098;15.474;2022-10-22T00:25:56;25.97;;;20.27;;
11761;SDS011;5938;47.098;15.474;2022-10-22T00:29:59;26.37;;;21.70;;
11761;SDS011;5938;47.098;15.474;2022-10-22T00:34:04;31.07;;;21.93;;
11761;SDS011;5938;47.098;15.474;2022-10-22T00:38:07;26.17;;;22.20;;
11761;SDS011;5938;47.098;15.474;2022-10-22T00:42:11;24.20;;;20.40;;
11761;SDS011;5938;47.098;15.474;2022-10-22T00:46:19;26.23;;;19.87;;
11761;SDS011;5938;47.098;15.474;2022-10-22T00:50:26;28.03;;;21.17;;
11761;SDS011;5938;47.098;15.474;2022-10-22T00:54:31;26.00;;;19.50;;
11761;SDS011;5938;47.098;15.474;2022-10-22T00:58:36;26.93;;;20.63;;
11761;SDS011;5938;47.098;15.474;2022-10-22T01:02:43;22.37;;;20.03;;
11761;SDS011;5938;47.098;15.474;2022-10-22T01:06:48;25.23;;;20.57;;
11761;SDS011;5938;47.098;15.474;2022-10-22T01:10:54;24.13;;;19.33;;
11761;SDS011;5938;47.098;15.474;2022-10-22T01:15:07;26.63;;;18.60;;
11761;SDS011;5938;47.098;15.474;2022-10-22T01:19:23;24.50;;;19.03;;
11761;SDS011;5938;47.098;15.474;2022-10-22T01:28:25;27.10;;;18.83;;
11761;SDS011;5938;47.098;15.474;2022-10-22T01:32:45;24.67;;;19.90;;
11761;SDS011;5938;47.098;15.474;2022-10-22T01:36:50;26.90;;;19.70;;
11761;SDS011;5938;47.098;15.474;2022-10-22T01:40:56;23.63;;;19.40;;
11761;SDS011;5938;47.098;15.474;2022-10-22T01:45:04;22.50;;;18.70;;
11761;SDS011;5938;47.098;15.474;2022-10-22T01:49:14;27.90;;;19.73;;
11761;SDS011;5938;47.098;15.474;2022-10-22T01:53:27;25.57;;;19.20;;
11761;SDS011;5938;47.098;15.474;2022-10-22T01:57:42;26.07;;;20.97;;
11761;SDS011;5938;47.098;15.474;2022-10-22T02:01:55;30.50;;;20.00;;
11761;SDS011;5938;47.098;15.474;2022-10-22T02:06:04;26.27;;;20.90;;
11761;SDS011;5938;47.098;15.474;2022-10-22T02:10:13;26.63;;;21.37;;
11761;SDS011;5938;47.098;15.474;2022-10-22T02:14:19;30.40;;;21.43;;
11761;SDS011;5938;47.098;15.474;2022-10-22T02:18:25;24.83;;;20.27;;
11761;SDS011;5938;47.098;15.474;2022-10-22T02:22:31;32.47;;;22.93;;
11761;SDS011;5938;47.098;15.474;2022-10-22T02:26:38;29.20;;;20.83;;
11761;SDS011;5938;47.098;15.474;2022-10-22T02:30:45;27.10;;;21.80;;
11761;SDS011;5938;47.098;15.474;2022-10-22T02:34:56;30.00;;;21.90;;
11761;SDS011;5938;47.098;15.474;2022-10-22T02:39:02;27.13;;;21.47;;
11761;SDS011;5938;47.098;15.474;2022-10-22T02:43:07;33.50;;;21.67;;
11761;SDS011;5938;47.098;15.474;2022-10-22T02:47:10;30.40;;;21.47;;
11761;SDS011;5938;47.098;15.474;2022-10-22T02:51:15;29.93;;;21.53;;
11761;SDS011;5938;47.098;15.474;2022-10-22T02:55:18;29.30;;;21.40;;
11761;SDS011;5938;47.098;15.474;2022-10-22T02:59:22;25.10;;;20.47;;
11761;SDS011;5938;47.098;15.474;2022-10-22T03:03:25;29.27;;;20.90;;
11761;SDS011;5938;47.098;15.474;2022-10-22T03:07:30;31.63;;;23.47;;
11761;SDS011;5938;47.098;15.474;2022-10-22T03:11:33;24.97;;;20.60;;
11761;SDS011;5938;47.098;15.474;2022-10-22T03:15:37;28.00;;;20.17;;
11761;SDS011;5938;47.098;15.474;2022-10-22T03:19:47;28.30;;;21.20;;
11761;SDS011;5938;47.098;15.474;2022-10-22T03:23:51;27.37;;;20.00;;
11761;SDS011;5938;47.098;15.474;2022-10-22T03:27:56;30.70;;;20.37;;
11761;SDS011;5938;47.098;15.474;2022-10-22T03:32:04;28.23;;;20.60;;
11761;SDS011;5938;47.098;15.474;2022-10-22T03:36:08;31.20;;;21.87;;
11761;SDS011;5938;47.098;15.474;2022-10-22T03:40:13;29.47;;;21.50;;
11761;SDS011;5938;47.098;15.474;2022-10-22T03:44:16;23.73;;;18.17;;
11761;SDS011;5938;47.098;15.474;2022-10-22T03:48:20;30.60;;;21.03;;
11761;SDS011;5938;47.098;15.474;2022-10-22T03:52:23;21.00;;;18.07;;
11761;SDS011;5938;47.098;15.474;2022-10-22T03:56:28;27.47;;;20.10;;
11761;SDS011;5938;47.098;15.474;2022-10-22T04:00:33;26.30;;;20.97;;
11761;SDS011;5938;47.098;15.474;2022-10-22T04:04:36;34.50;;;19.40;;
11761;SDS011;5938;47.098;15.474;2022-10-22T04:08:41;24.17;;;18.80;;
11761;SDS011;5938;47.098;15.474;2022-10-22T04:12:47;27.10;;;20.60;;
11761;SDS011;5938;47.098;15.474;2022-10-22T04:16:50;23.60;;;18.43;;
11761;SDS011;5938;47.098;15.474;2022-10-22T04:20:54;31.70;;;22.73;;
11761;SDS011;5938;47.098;15.474;2022-10-22T04:24:57;28.97;;;22.17;;
11761;SDS011;5938;47.098;15.474;2022-10-22T04:29:02;29.37;;;19.70;;
11761;SDS011;5938;47.098;15.474;2022-10-22T04:33:05;28.47;;;19.80;;
11761;SDS011;5938;47.098;15.474;2022-10-22T04:37:08;24.47;;;18.23;;
11761;SDS011;5938;47.098;15.474;2022-10-22T04:41:12;26.30;;;20.10;;
11761;SDS011;5938;47.098;15.474;2022-10-22T04:45:19;24.97;;;19.50;;
11761;SDS011;5938;47.098;15.474;2022-10-22T04:49:22;29.37;;;20.30;;
11761;SDS011;5938;47.098;15.474;2022-10-22T04:53:26;23.93;;;19.03;;
11761;SDS011;5938;47.098;15.474;2022-10-22T04:57:29;29.20;;;22.50;;
11761;SDS011;5938;47.098;15.474;2022-10-22T05:01:35;25.80;;;19.67;;
11761;SDS011;5938;47.098;15.474;2022-10-22T05:05:43;30.30;;;19.70;;
11761;SDS011;5938;47.098;15.474;2022-10-22T05:09:46;33.57;;;19.70;;
11761;SDS011;5938;47.098;15.474;2022-10-22T05:13:50;26.57;;;20.13;;
11761;SDS011;5938;47.098;15.474;2022-10-22T05:17:55;32.00;;;20.13;;
11761;SDS011;5938;47.098;15.474;2022-10-22T05:21:58;29.43;;;22.67;;
11761;SDS011;5938;47.098;15.474;2022-10-22T05:26:03;31.93;;;21.87;;
11761;SDS011;5938;47.098;15.474;2022-10-22T05:30:08;34.17;;;22.07;;
11761;SDS011;5938;47.098;15.474;2022-10-22T05:34:13;32.23;;;21.77;;
11761;SDS011;5938;47.098;15.474;2022-10-22T05:38:17;28.20;;;20.60;;
11761;SDS011;5938;47.098;15.474;2022-10-22T05:42:21;31.67;;;20.60;;
11761;SDS011;5938;47.098;15.474;2022-10-22T05:50:35;25.67;;;19.33;;
11761;SDS011;5938;47.098;15.474;2022-10-22T05:54:39;26.37;;;20.63;;
11761;SDS011;5938;47.098;15.474;2022-10-22T05:58:44;29.13;;;21.63;;
11761;SDS011;5938;47.098;15.474;2022-10-22T06:02:48;28.83;;;20.43;;
11761;SDS011;5938;47.098;15.474;2022-10-22T06:06:53;49.20;;;22.40;;
11761;SDS011;5938;47.098;15.474;2022-10-22T06:11:12;32.97;;;20.10;;
11761;SDS011;5938;47.098;15.474;2022-10-22T06:15:16;28.57;;;20.27;;
11761;SDS011;5938;47.098;15.474;2022-10-22T06:19:21;30.77;;;22.87;;
11761;SDS011;5938;47.098;15.474;2022-10-22T06:23:27;31.53;;;24.60;;
11761;SDS011;5938;47.098;15.474;2022-10-22T06:27:30;33.30;;;24.30;;
11761;SDS011;5938;47.098;15.474;2022-10-22T06:31:34;26.13;;;22.50;;
11761;SDS011;5938;47.098;15.474;2022-10-22T06:35:38;30.23;;;23.00;;
11761;SDS011;5938;47.098;15.474;2022-10-22T06:39:42;26.33;;;23.27;;
11761;SDS011;5938;47.098;15.474;2022-10-22T06:43:45;27.93;;;22.70;;
11761;SDS011;5938;47.098;15.474;2022-10-22T06:47:49;28.13;;;23.83;;
11761;SDS011;5938;47.098;15.474;2022-10-22T06:51:53;30.43;;;23.13;;
11761;SDS011;5938;47.098;15.474;2022-10-22T06:55:58;29.73;;;22.83;;
11761;SDS011;5938;47.098;15.474;2022-10-22T07:00:01;27.00;;;22.13;;
11761;SDS011;5938;47.098;15.474;2022-10-22T07:04:05;25.80;;;21.47;;
11761;SDS011;5938;47.098;15.474;2022-10-22T07:08:09;25.47;;;19.13;;
11761;SDS011;5938;47.098;15.474;2022-10-22T07:12:14;24.53;;;19.37;;
11761;SDS011;5938;47.098;15.474;2022-10-22T07:16:17;23.57;;;21.10;;
11761;SDS011;5938;47.098;15.474;2022-10-22T07:20:21;19.93;;;17.63;;
11761;SDS011;5938;47.098;15.474;2022-10-22T07:24:25;21.77;;;17.87;;
11761;SDS011;5938;47.098;15.474;2022-10-22T07:28:30;22.40;;;17.80;;
11761;SDS011;5938;47.098;15.474;2022-10-22T07:32:33;18.87;;;16.70;;
11761;SDS011;5938;47.098;15.474;2022-10-22T07:36:37;23.60;;;17.80;;
11761;SDS011;5938;47.098;15.474;2022-10-22T07:44:48;20.53;;;16.63;;
11761;SDS011;5938;47.098;15.474;2022-10-22T07:48:51;37.00;;;18.43;;
11761;SDS011;5938;47.098;15.474;2022-10-22T07:52:55;20.77;;;17.97;;
11761;SDS011;5938;47.098;15.474;2022-10-22T07:56:59;24.83;;;18.27;;
11761;SDS011;5938;47.098;15.474;2022-10-22T08:01:04;21.33;;;16.57;;
11761;SDS011;5938;47.098;15.474;2022-10-22T08:05:07;22.87;;;17.37;;
11761;SDS011;5938;47.098;15.474;2022-10-22T08:09:13;15.60;;;12.40;;
11761;SDS011;5938;47.098;15.474;2022-10-22T08:13:17;20.60;;;11.97;;
11761;SDS011;5938;47.098;15.474;2022-10-22T08:17:22;14.40;;;11.80;;
11761;SDS011;5938;47.098;15.474;2022-10-22T08:21:25;15.93;;;12.53;;
11761;SDS011;5938;47.098;15.474;2022-10-22T08:25:28;18.33;;;12.50;;
11761;SDS011;5938;47.098;15.474;2022-10-22T08:29:32;14.50;;;11.80;;
11761;SDS011;5938;47.098;15.474;2022-10-22T08:33:36;19.97;;;12.73;;
11761;SDS011;5938;47.098;15.474;2022-10-22T08:37:40;16.10;;;13.00;;
11761;SDS011;5938;47.098;15.474;2022-10-22T08:41:45;17.70;;;14.20;;
11761;SDS011;5938;47.098;15.474;2022-10-22T08:45:58;18.57;;;13.63;;
11761;SDS011;5938;47.098;15.474;2022-10-22T08:50:13;15.93;;;12.97;;
11761;SDS011;5938;47.098;15.474;2022-10-22T08:54:29;18.23;;;14.27;;
11761;SDS011;5938;47.098;15.474;2022-10-22T08:58:41;17.20;;;12.80;;
11761;SDS011;5938;47.098;15.474;2022-10-22T09:02:55;15.30;;;12.37;;
11761;SDS011;5938;47.098;15.474;2022-10-22T09:07:08;15.97;;;13.27;;
11761;SDS011;5938;47.098;15.474;2022-10-22T09:11:14;18.00;;;12.97;;
11761;SDS011;5938;47.098;15.474;2022-10-22T09:15:24;15.30;;;12.13;;
11761;SDS011;5938;47.098;15.474;2022-10-22T09:19:31;17.80;;;11.87;;
11761;SDS011;5938;47.098;15.474;2022-10-22T09:23:47;18.30;;;12.70;;
11761;SDS011;5938;47.098;15.474;2022-10-22T09:27:57;12.93;;;11.27;;
11761;SDS011;5938;47.098;15.474;2022-10-22T09:32:01;14.23;;;12.23;;
11761;SDS011;5938;47.098;15.474;2022-10-22T09:36:07;15.93;;;14.23;;
11761;SDS011;5938;47.098;15.474;2022-10-22T09:40:17;19.77;;;13.60;;
11761;SDS011;5938;47.098;15.474;2022-10-22T09:44:20;15.63;;;12.30;;
11761;SDS011;5938;47.098;15.474;2022-10-22T09:48:27;15.20;;;12.93;;
11761;SDS011;5938;47.098;15.474;2022-10-22T09:52:41;18.00;;;13.50;;
11761;SDS011;5938;47.098;15.474;2022-10-22T09:56:53;15.17;;;12.37;;
11761;SDS011;5938;47.098;15.474;2022-10-22T10:00:59;15.70;;;11.60;;
11761;SDS011;5938;47.098;15.474;2022-10-22T10:05:03;14.63;;;11.10;;
11761;SDS011;5938;47.098;15.474;2022-10-22T10:09:10;11.53;;;10.30;;
11761;SDS011;5938;47.098;15.474;2022-10-22T10:13:23;18.30;;;12.47;;
11761;SDS011;5938;47.098;15.474;2022-10-22T10:17:49;18.67;;;14.13;;
11761;SDS011;5938;47.098;15.474;2022-10-22T10:22:04;13.37;;;11.80;;
11761;SDS011;5938;47.098;15.474;2022-10-22T10:26:16;15.50;;;11.83;;
11761;SDS011;5938;47.098;15.474;2022-10-22T10:30:27;43.93;;;39.47;;
11761;SDS011;5938;47.098;15.474;2022-10-22T10:34:34;19.30;;;12.90;;
11761;SDS011;5938;47.098;15.474;2022-10-22T10:38:49;14.40;;;12.20;;
11761;SDS011;5938;47.098;15.474;2022-10-22T10:42:59;15.17;;;13.40;;
11761;SDS011;5938;47.098;15.474;2022-10-22T10:47:13;11.77;;;10.33;;
11761;SDS011;5938;47.098;15.474;2022-10-22T10:51:25;11.80;;;9.30;;
11761;SDS011;5938;47.098;15.474;2022-10-22T10:55:37;19.47;;;14.37;;
11761;SDS011;5938;47.098;15.474;2022-10-22T11:00:00;19.37;;;12.50;;
11761;SDS011;5938;47.098;15.474;2022-10-22T11:04:12;15.40;;;13.30;;
11761;SDS011;5938;47.098;15.474;2022-10-22T11:08:29;16.30;;;14.07;;
11761;SDS011;5938;47.098;15.474;2022-10-22T11:12:35;22.60;;;17.40;;
11761;SDS011;5938;47.098;15.474;2022-10-22T11:16:45;15.13;;;12.43;;
11761;SDS011;5938;47.098;15.474;2022-10-22T11:20:56;13.63;;;12.20;;
11761;SDS011;5938;47.098;15.474;2022-10-22T11:25:13;13.60;;;11.87;;
11761;SDS011;5938;47.098;15.474;2022-10-22T11:29:22;13.07;;;11.33;;
11761;SDS011;5938;47.098;15.474;2022-10-22T11:33:35;12.57;;;11.20;;
11761;SDS011;5938;47.098;15.474;2022-10-22T11:37:45;17.60;;;12.50;;
11761;SDS011;5938;47.098;15.474;2022-10-22T11:41:50;14.47;;;10.70;;
11761;SDS011;5938;47.098;15.474;2022-10-22T11:46:00;11.60;;;9.30;;
11761;SDS011;5938;47.098;15.474;2022-10-22T11:50:17;11.40;;;9.17;;
11761;SDS011;5938;47.098;15.474;2022-10-22T11:54:37;13.90;;;9.70;;
11761;SDS011;5938;47.098;15.474;2022-10-22T11:58:43;10.03;;;9.00;;
11761;SDS011;5938;47.098;15.474;2022-10-22T12:03:00;10.73;;;9.40;;
11761;SDS011;5938;47.098;15.474;2022-10-22T12:07:23;14.73;;;10.23;;
11761;SDS011;5938;47.098;15.474;2022-10-22T12:11:36;12.03;;;10.50;;
11761;SDS011;5938;47.098;15.474;2022-10-22T12:15:45;18.93;;;11.97;;
11761;SDS011;5938;47.098;15.474;2022-10-22T12:19:50;12.00;;;10.87;;
11761;SDS011;5938;47.098;15.474;2022-10-22T12:24:03;15.93;;;10.30;;
11761;SDS011;5938;47.098;15.474;2022-10-22T12:28:10;18.50;;;10.63;;
11761;SDS011;5938;47.098;15.474;2022-10-22T12:32:14;15.73;;;11.13;;
11761;SDS011;5938;47.098;15.474;2022-10-22T12:36:18;14.83;;;13.40;;
11761;SDS011;5938;47.098;15.474;2022-10-22T12:40:22;22.00;;;16.43;;
11761;SDS011;5938;47.098;15.474;2022-10-22T12:44:29;23.80;;;15.17;;
11761;SDS011;5938;47.098;15.474;2022-10-22T12:48:35;15.30;;;13.03;;
11761;SDS011;5938;47.098;15.474;2022-10-22T12:52:40;16.80;;;13.90;;
11761;SDS011;5938;47.098;15.474;2022-10-22T12:56:44;18.17;;;14.90;;
11761;SDS011;5938;47.098;15.474;2022-10-22T13:00:54;18.30;;;16.40;;
11761;SDS011;5938;47.098;15.474;2022-10-22T13:05:05;20.07;;;15.90;;
11761;SDS011;5938;47.098;15.474;2022-10-22T13:09:17;43.97;;;23.13;;
11761;SDS011;5938;47.098;15.474;2022-10-22T13:13:28;27.67;;;19.00;;
11761;SDS011;5938;47.098;15.474;2022-10-22T13:17:38;22.50;;;18.17;;
11761;SDS011;5938;47.098;15.474;2022-10-22T13:21:47;25.27;;;17.73;;
11761;SDS011;5938;47.098;15.474;2022-10-22T13:25:57;20.60;;;17.33;;
11761;SDS011;5938;47.098;15.474;2022-10-22T13:30:08;20.03;;;17.93;;
11761;SDS011;5938;47.098;15.474;2022-10-22T13:34:20;21.93;;;16.90;;
11761;SDS011;5938;47.098;15.474;2022-10-22T13:38:26;19.30;;;15.53;;
11761;SDS011;5938;47.098;15.474;2022-10-22T13:42:30;20.80;;;16.60;;
11761;SDS011;5938;47.098;15.474;2022-10-22T13:46:34;18.47;;;16.53;;
11761;SDS011;5938;47.098;15.474;2022-10-22T13:50:44;17.80;;;15.10;;
11761;SDS011;5938;47.098;15.474;2022-10-22T13:54:48;22.23;;;14.83;;
11761;SDS011;5938;47.098;15.474;2022-10-22T13:58:51;21.23;;;15.07;;
11761;SDS011;5938;47.098;15.474;2022-10-22T14:02:55;19.77;;;14.83;;
11761;SDS011;5938;47.098;15.474;2022-10-22T14:07:01;16.63;;;14.60;;
11761;SDS011;5938;47.098;15.474;2022-10-22T14:11:05;16.47;;;14.10;;
11761;SDS011;5938;47.098;15.474;2022-10-22T14:15:11;16.53;;;12.03;;
11761;SDS011;5938;47.098;15.474;2022-10-22T14:19:16;18.40;;;13.20;;
11761;SDS011;5938;47.098;15.474;2022-10-22T14:23:22;17.00;;;15.20;;
11761;SDS011;5938;47.098;15.474;2022-10-22T14:27:26;15.47;;;12.53;;
11761;SDS011;5938;47.098;15.474;2022-10-22T14:31:30;19.77;;;14.63;;
11761;SDS011;5938;47.098;15.474;2022-10-22T14:35:34;19.23;;;13.97;;
11761;SDS011;5938;47.098;15.474;2022-10-22T14:39:45;17.30;;;13.97;;
11761;SDS011;5938;47.098;15.474;2022-10-22T14:43:53;22.40;;;14.93;;
11761;SDS011;5938;47.098;15.474;2022-10-22T14:47:56;21.47;;;15.23;;
11761;SDS011;5938;47.098;15.474;2022-10-22T14:52:01;17.30;;;13.70;;
11761;SDS011;5938;47.098;15.474;2022-10-22T14:56:13;19.30;;;13.47;;
11761;SDS011;5938;47.098;15.474;2022-10-22T15:00:18;14.47;;;12.60;;
11761;SDS011;5938;47.098;15.474;2022-10-22T15:04:22;17.77;;;14.83;;
11761;SDS011;5938;47.098;15.474;2022-10-22T15:12:44;15.43;;;12.20;;
11761;SDS011;5938;47.098;15.474;2022-10-22T15:16:47;16.17;;;13.50;;
11761;SDS011;5938;47.098;15.474;2022-10-22T15:20:54;19.80;;;14.00;;
11761;SDS011;5938;47.098;15.474;2022-10-22T15:25:00;17.50;;;13.40;;
11761;SDS011;5938;47.098;15.474;2022-10-22T15:29:06;18.10;;;14.00;;
11761;SDS011;5938;47.098;15.474;2022-10-22T15:33:09;18.00;;;14.33;;
11761;SDS011;5938;47.098;15.474;2022-10-22T15:37:13;23.80;;;18.30;;
11761;SDS011;5938;47.098;15.474;2022-10-22T15:41:17;24.07;;;19.90;;
11761;SDS011;5938;47.098;15.474;2022-10-22T15:45:22;20.20;;;15.63;;
11761;SDS011;5938;47.098;15.474;2022-10-22T15:49:26;18.03;;;15.80;;
11761;SDS011;5938;47.098;15.474;2022-10-22T15:53:30;21.17;;;15.07;;
11761;SDS011;5938;47.098;15.474;2022-10-22T15:57:33;18.17;;;16.27;;
11761;SDS011;5938;47.098;15.474;2022-10-22T16:01:38;27.43;;;20.57;;
11761;SDS011;5938;47.098;15.474;2022-10-22T16:05:48;29.50;;;22.63;;
11761;SDS011;5938;47.098;15.474;2022-10-22T16:09:54;29.10;;;22.37;;
11761;SDS011;5938;47.098;15.474;2022-10-22T16:13:59;29.57;;;23.53;;
11761;SDS011;5938;47.098;15.474;2022-10-22T16:18:04;26.17;;;23.07;;
11761;SDS011;5938;47.098;15.474;2022-10-22T16:22:08;33.63;;;28.90;;
11761;SDS011;5938;47.098;15.474;2022-10-22T16:26:15;31.77;;;25.03;;
11761;SDS011;5938;47.098;15.474;2022-10-22T16:30:19;35.37;;;27.20;;
11761;SDS011;5938;47.098;15.474;2022-10-22T16:34:23;28.53;;;25.57;;
11761;SDS011;5938;47.098;15.474;2022-10-22T16:38:29;30.93;;;24.77;;
11761;SDS011;5938;47.098;15.474;2022-10-22T16:42:33;29.23;;;24.40;;
11761;SDS011;5938;47.098;15.474;2022-10-22T16:46:37;35.80;;;21.80;;
11761;SDS011;5938;47.098;15.474;2022-10-22T16:50:43;21.50;;;19.13;;
11761;SDS011;5938;47.098;15.474;2022-10-22T16:54:47;24.30;;;20.13;;
11761;SDS011;5938;47.098;15.474;2022-10-22T16:58:52;22.67;;;20.10;;
11761;SDS011;5938;47.098;15.474;2022-10-22T17:02:57;32.97;;;23.40;;
11761;SDS011;5938;47.098;15.474;2022-10-22T17:07:03;28.13;;;22.83;;
11761;SDS011;5938;47.098;15.474;2022-10-22T17:11:07;29.53;;;22.93;;
11761;SDS011;5938;47.098;15.474;2022-10-22T17:15:14;26.10;;;20.97;;
11761;SDS011;5938;47.098;15.474;2022-10-22T17:19:19;26.57;;;19.13;;
11761;SDS011;5938;47.098;15.474;2022-10-22T17:23:26;22.60;;;17.47;;
11761;SDS011;5938;47.098;15.474;2022-10-22T17:27:34;24.50;;;17.90;;
11761;SDS011;5938;47.098;15.474;2022-10-22T17:31:39;23.23;;;17.33;;
11761;SDS011;5938;47.098;15.474;2022-10-22T17:35:44;28.60;;;18.73;;
11761;SDS011;5938;47.098;15.474;2022-10-22T17:39:56;22.47;;;16.23;;
11761;SDS011;5938;47.098;15.474;2022-10-22T17:44:03;22.67;;;18.60;;
11761;SDS011;5938;47.098;15.474;2022-10-22T17:48:16;25.13;;;18.53;;
11761;SDS011;5938;47.098;15.474;2022-10-22T17:52:20;21.77;;;19.00;;
11761;SDS011;5938;47.098;15.474;2022-10-22T17:56:28;18.73;;;16.30;;
11761;SDS011;5938;47.098;15.474;2022-10-22T18:00:34;18.03;;;15.20;;
11761;SDS011;5938;47.098;15.474;2022-10-22T18:04:39;19.73;;;15.70;;
11761;SDS011;5938;47.098;15.474;2022-10-22T18:08:45;19.50;;;15.07;;
11761;SDS011;5938;47.098;15.474;2022-10-22T18:12:56;16.83;;;15.00;;
11761;SDS011;5938;47.098;15.474;2022-10-22T18:17:04;19.57;;;16.00;;
11761;SDS011;5938;47.098;15.474;2022-10-22T18:21:09;19.10;;;14.47;;
11761;SDS011;5938;47.098;15.474;2022-10-22T18:25:26;29.70;;;19.80;;
11761;SDS011;5938;47.098;15.474;2022-10-22T18:29:41;27.73;;;18.80;;
11761;SDS011;5938;47.098;15.474;2022-10-22T18:33:49;20.90;;;16.40;;
11761;SDS011;5938;47.098;15.474;2022-10-22T18:37:54;25.70;;;18.50;;
11761;SDS011;5938;47.098;15.474;2022-10-22T18:42:00;20.60;;;16.87;;
11761;SDS011;5938;47.098;15.474;2022-10-22T18:46:10;19.27;;;15.30;;
11761;SDS011;5938;47.098;15.474;2022-10-22T18:50:18;19.90;;;16.20;;
11761;SDS011;5938;47.098;15.474;2022-10-22T18:54:25;21.90;;;17.90;;
11761;SDS011;5938;47.098;15.474;2022-10-22T18:58:31;22.60;;;17.20;;
11761;SDS011;5938;47.098;15.474;2022-10-22T19:02:42;26.77;;;18.27;;
11761;SDS011;5938;47.098;15.474;2022-10-22T19:06:47;24.50;;;17.07;;
11761;SDS011;5938;47.098;15.474;2022-10-22T19:10:54;25.37;;;18.53;;
11761;SDS011;5938;47.098;15.474;2022-10-22T19:15:02;23.83;;;17.73;;
11761;SDS011;5938;47.098;15.474;2022-10-22T19:19:10;25.63;;;16.83;;
11761;SDS011;5938;47.098;15.474;2022-10-22T19:23:19;22.60;;;15.77;;
11761;SDS011;5938;47.098;15.474;2022-10-22T19:27:24;25.43;;;20.13;;
11761;SDS011;5938;47.098;15.474;2022-10-22T19:31:38;25.97;;;19.87;;
11761;SDS011;5938;47.098;15.474;2022-10-22T19:35:47;23.43;;;18.83;;
11761;SDS011;5938;47.098;15.474;2022-10-22T19:39:52;24.20;;;16.97;;
11761;SDS011;5938;47.098;15.474;2022-10-22T19:43:58;30.00;;;21.97;;
11761;SDS011;5938;47.098;15.474;2022-10-22T19:48:09;26.97;;;20.03;;
11761;SDS011;5938;47.098;15.474;2022-10-22T19:52:15;23.77;;;15.23;;
11761;SDS011;5938;47.098;15.474;2022-10-22T19:56:21;18.83;;;14.53;;
11761;SDS011;5938;47.098;15.474;2022-10-22T20:00:25;27.87;;;18.83;;
11761;SDS011;5938;47.098;15.474;2022-10-22T20:04:30;30.70;;;23.00;;
11761;SDS011;5938;47.098;15.474;2022-10-22T20:08:37;25.43;;;20.50;;
11761;SDS011;5938;47.098;15.474;2022-10-22T20:12:41;25.10;;;17.13;;
11761;SDS011;5938;47.098;15.474;2022-10-22T20:16:46;21.83;;;14.33;;
11761;SDS011;5938;47.098;15.474;2022-10-22T20:20:53;24.47;;;16.87;;
11761;SDS011;5938;47.098;15.474;2022-10-22T20:24:59;26.27;;;19.40;;
11761;SDS011;5938;47.098;15.474;2022-10-22T20:29:02;23.53;;;15.40;;
11761;SDS011;5938;47.098;15.474;2022-10-22T20:33:07;17.10;;;11.50;;
11761;SDS011;5938;47.098;15.474;2022-10-22T20:37:10;28.67;;;21.70;;
11761;SDS011;5938;47.098;15.474;2022-10-22T20:41:17;24.27;;;19.53;;
11761;SDS011;5938;47.098;15.474;2022-10-22T20:45:23;21.80;;;17.57;;
11761;SDS011;5938;47.098;15.474;2022-10-22T20:49:31;26.07;;;18.77;;
11761;SDS011;5938;47.098;15.474;2022-10-22T20:53:38;23.47;;;18.00;;
11761;SDS011;5938;47.098;15.474;2022-10-22T20:57:43;21.00;;;16.50;;
11761;SDS011;5938;47.098;15.474;2022-10-22T21:01:53;21.70;;;15.47;;
11761;SDS011;5938;47.098;15.474;2022-10-22T21:05:57;16.13;;;13.90;;
11761;SDS011;5938;47.098;15.474;2022-10-22T21:10:00;15.43;;;13.53;;
11761;SDS011;5938;47.098;15.474;2022-10-22T21:14:06;19.03;;;13.90;;
11761;SDS011;5938;47.098;15.474;2022-10-22T21:18:11;19.17;;;15.00;;
11761;SDS011;5938;47.098;15.474;2022-10-22T21:22:14;15.03;;;13.20;;
11761;SDS011;5938;47.098;15.474;2022-10-22T21:26:18;18.53;;;14.60;;
11761;SDS011;5938;47.098;15.474;2022-10-22T21:30:23;19.70;;;16.10;;
11761;SDS011;5938;47.098;15.474;2022-10-22T21:34:26;21.20;;;17.07;;
11761;SDS011;5938;47.098;15.474;2022-10-22T21:38:30;19.00;;;13.73;;
11761;SDS011;5938;47.098;15.474;2022-10-22T21:42:34;11.60;;;8.47;;
11761;SDS011;5938;47.098;15.474;2022-10-22T21:46:38;14.27;;;8.87;;
11761;SDS011;5938;47.098;15.474;2022-10-22T21:50:42;11.37;;;8.03;;
11761;SDS011;5938;47.098;15.474;2022-10-22T21:54:46;9.43;;;8.40;;
11761;SDS011;5938;47.098;15.474;2022-10-22T22:03:37;15.73;;;12.20;;
11761;SDS011;5938;47.098;15.474;2022-10-22T22:07:43;15.00;;;13.40;;
11761;SDS011;5938;47.098;15.474;2022-10-22T22:11:47;14.90;;;11.70;;
11761;SDS011;5938;47.098;15.474;2022-10-22T22:15:50;12.37;;;10.20;;
11761;SDS011;5938;47.098;15.474;2022-10-22T22:19:55;16.50;;;12.63;;
11761;SDS011;5938;47.098;15.474;2022-10-22T22:23:58;15.13;;;13.03;;
11761;SDS011;5938;47.098;15.474;2022-10-22T22:28:02;11.37;;;10.17;;
11761;SDS011;5938;47.098;15.474;2022-10-22T22:32:06;15.33;;;11.73;;
11761;SDS011;5938;47.098;15.474;2022-10-22T22:36:10;12.37;;;10.17;;
11761;SDS011;5938;47.098;15.474;2022-10-22T22:40:22;14.50;;;10.20;;
11761;SDS011;5938;47.098;15.474;2022-10-22T22:44:27;11.00;;;9.80;;
11761;SDS011;5938;47.098;15.474;2022-10-22T22:48:31;16.47;;;11.73;;
11761;SDS011;5938;47.098;15.474;2022-10-22T22:52:36;18.97;;;11.27;;
11761;SDS011;5938;47.098;15.474;2022-10-22T22:56:39;18.07;;;12.57;;
11761;SDS011;5938;47.098;15.474;2022-10-22T23:05:18;14.20;;;11.50;;
11761;SDS011;5938;47.098;15.474;2022-10-22T23:09:22;16.07;;;11.93;;
11761;SDS011;5938;47.098;15.474;2022-10-22T23:13:26;17.53;;;13.20;;
11761;SDS011;5938;47.098;15.474;2022-10-22T23:17:29;13.90;;;11.90;;
11761;SDS011;5938;47.098;15.474;2022-10-22T23:21:34;13.67;;;11.23;;
11761;SDS011;5938;47.098;15.474;2022-10-22T23:25:40;21.47;;;12.10;;
11761;SDS011;5938;47.098;15.474;2022-10-22T23:29:43;18.03;;;12.87;;
11761;SDS011;5938;47.098;15.474;2022-10-22T23:33:47;15.87;;;11.50;;
11761;SDS011;5938;47.098;15.474;2022-10-22T23:37:51;18.50;;;11.77;;
11761;SDS011;5938;47.098;15.474;2022-10-22T23:41:56;14.20;;;9.60;;
11761;SDS011;5938;47.098;15.474;2022-10-22T23:46:00;17.80;;;10.57;;
11761;SDS011;5938;47.098;15.474;2022-10-22T23:50:04;26.87;;;10.67;;
11761;SDS011;5938;47.098;15.474;2022-10-22T23:54:09;9.20;;;8.30;;
11761;SDS011;5938;47.098;15.474;2022-10-22T23:58:15;13.87;;;9.67;;
